Startpagina
METAR-TAF:

METAR-TAF

Vliegvelden :

Guatemala-stad, Guatemala

breedte: 14-35N, lengte: 090-31W, hoogte: 1489 m

Actueel weer

Dit bericht is 34 minuten geleden gemaakt, om 09:00 UTC
Wind 16 kt uit het noordnoordwesten
Temperatuur 16°C
Vochtigheid 77%
Druk 1024 hPa
Zicht 10 km of meer
Geheel bewolkt op 1600 ft

METAR: MGGT 200900Z 34016KT 9999 OVC016 16/12 Q1024 A3024

Tijdstip: 03:34 (09:34 UTC)

Verwachting

Verwachting geldig van 20 om 06 UTC tot 21 om 06 UTC
Wind 14 kt uit het noorden
Zicht 10 km of meer
Gebroken wolken op 1400 ft
Kans 30% :
Tijdelijke
van 20 om 06 UTC tot 20 om 14 UTC
Zicht: 8000 m
Gebroken wolken op 1200 ft
motregen
Wijzigt naar
van 20 om 15 UTC tot 20 om 17 UTC
Verspreide wolken op 1800 ft
Wijzigt naar
van 21 om 01 UTC tot 21 om 03 UTC
Verspreide wolken op 1600 ft

TAF: MGGT 2006/2106 36014KT 9999 BKN014 TX24/2020Z TN13/2012Z PROB30 TEMPO 2006/2014 8000 DZ BKN012 BECMG 2015/2017 SCT018 BECMG 2101/2103 SCT016

Waarnemingen en weersverwachtingen van meer dan 4000 vliegvelden (METAR en TAF).

De beschikbare stations zijn de gele en rode punten op de kaart.

Ga met uw muis naar het station om de naam te zien.

Klik dan om waarnemingen en weersverwachtingen te zien.

kaart wijzigen: klik op de groene knoppen met een zwart kruis om in te zoomen, op de groene knop met een streepje om uit te zoomen of op de groene pijlen voor aangrenzende kaarten.


METAR-TAF: